Time;durP1;ratioP1;P1;durP2;ratioP2;P2;SDS_P1;SDS_P2;PMS_P1;PMS_P2;Temp;Humidity;BMP_temperature;BMP_pressure;BME280_temperature;BME280_humidity;BME280_pressure;Samples;Min_cycle;Max_cycle;Signal;HPM_P1;HPM_P2
2021/12/02 00:02:54;;;;;;;14.45;8.98;;;;;;;2.62;93.14;99707.50;10536904;28;20028;-79
2021/12/02 00:07:54;;;;;;;18.48;9.13;;;;;;;2.58;93.26;99700.34;10518979;28;20032;-78
2021/12/02 00:12:56;;;;;;;16.85;8.02;;;;;;;2.62;93.27;99712.66;10518297;28;20059;-79
2021/12/02 00:18:18;;;;;;;12.30;7.38;;;;;;;2.64;93.08;99707.59;10502282;28;20547;-78
2021/12/02 00:23:28;;;;;;;22.67;8.88;;;;;;;2.73;92.64;99715.91;10536520;28;20043;-78
2021/12/02 00:28:29;;;;;;;11.70;7.25;;;;;;;2.70;92.77;99717.41;10519591;28;20089;-78
2021/12/02 00:33:30;;;;;;;13.68;6.03;;;;;;;2.76;92.41;99720.34;10501367;28;20028;-78
2021/12/02 00:38:31;;;;;;;16.38;6.22;;;;;;;2.72;92.71;99732.22;10518956;28;20055;-78
2021/12/02 00:43:33;;;;;;;16.70;6.38;;;;;;;2.69;92.40;99729.44;10536635;28;20060;-78
2021/12/02 00:48:33;;;;;;;13.25;6.03;;;;;;;2.74;91.69;99733.19;10518248;28;20032;-78
2021/12/02 00:53:34;;;;;;;19.85;6.28;;;;;;;2.77;92.01;99741.13;10525466;28;20548;-78
2021/12/02 00:58:35;;;;;;;13.10;3.83;;;;;;;2.81;91.52;99749.06;10509212;28;20430;-78
2021/12/02 01:03:36;;;;;;;10.32;3.95;;;;;;;2.87;90.91;99746.88;10525100;28;20052;-78
2021/12/02 01:08:37;;;;;;;9.90;3.87;;;;;;;2.85;90.74;99748.47;10525283;28;20039;-78
2021/12/02 01:13:38;;;;;;;21.60;6.00;;;;;;;2.88;90.58;99746.94;10525966;28;20115;-80
2021/12/02 01:18:38;;;;;;;6.63;2.70;;;;;;;2.86;90.13;99755.41;10524859;28;20111;-78
2021/12/02 01:23:39;;;;;;;9.10;4.93;;;;;;;2.85;89.65;99751.06;10542439;28;20036;-78
2021/12/02 01:28:39;;;;;;;11.50;3.92;;;;;;;2.76;89.53;99747.09;10524403;28;20436;-78
2021/12/02 01:33:40;;;;;;;16.30;2.80;;;;;;;2.74;89.17;99747.78;10525131;28;20111;-79
2021/12/02 01:38:40;;;;;;;9.77;3.75;;;;;;;2.73;89.45;99749.50;10522859;28;20534;-79
2021/12/02 01:43:51;;;;;;;11.20;3.70;;;;;;;2.76;89.30;99749.69;10524160;28;20066;-78
2021/12/02 01:49:02;;;;;;;7.30;4.82;;;;;;;2.77;89.34;99746.31;10541602;28;20518;-79
2021/12/02 01:54:07;;;;;;;8.97;3.70;;;;;;;2.76;89.73;99749.69;10492949;28;20161;-79
2021/12/02 01:59:33;;;;;;;14.35;4.25;;;;;;;2.73;89.33;99749.50;10506671;28;20046;-78
2021/12/02 02:04:33;;;;;;;8.30;3.35;;;;;;;2.72;89.09;99760.63;10509442;28;20081;-78
2021/12/02 02:09:34;;;;;;;5.78;3.05;;;;;;;2.70;89.34;99771.66;10506931;28;20464;-78
2021/12/02 02:14:35;;;;;;;9.43;4.28;;;;;;;2.69;89.65;99762.13;10505990;28;20032;-78
2021/12/02 02:19:35;;;;;;;8.60;3.33;;;;;;;2.68;89.50;99765.50;10503156;28;20055;-78
2021/12/02 02:24:36;;;;;;;8.10;3.83;;;;;;;2.63;89.62;99768.69;10481006;28;20036;-78
2021/12/02 02:29:37;;;;;;;7.20;2.90;;;;;;;2.62;89.34;99768.63;10488839;28;20112;-78
2021/12/02 02:34:37;;;;;;;7.93;4.35;;;;;;;2.63;89.75;99771.28;10539466;28;20127;-78
2021/12/02 02:39:38;;;;;;;13.52;3.78;;;;;;;2.64;89.39;99773.06;10495621;28;20071;-79
2021/12/02 02:44:39;;;;;;;9.40;4.07;;;;;;;2.56;89.40;99763.94;10498973;28;20060;-78
2021/12/02 02:49:40;;;;;;;7.65;3.58;;;;;;;2.52;89.60;99774.91;10496558;28;20500;-78
2021/12/02 02:54:40;;;;;;;7.82;4.85;;;;;;;2.38;90.00;99767.97;10497010;28;20040;-78
2021/12/02 03:00:00;;;;;;;8.77;3.92;;;;;;;2.30;89.71;99767.50;10479036;28;20111;-78
2021/12/02 03:10:22;;;;;;;13.18;5.00;;;;;;;2.00;90.03;99763.06;10494911;28;20423;-78
2021/12/02 03:20:27;;;;;;;10.85;6.15;;;;;;;1.38;90.12;99758.19;10478296;28;20036;-79
2021/12/02 03:25:27;;;;;;;9.63;5.38;;;;;;;1.32;90.63;99756.06;10497385;28;20434;-78
2021/12/02 03:30:28;;;;;;;12.77;6.90;;;;;;;1.26;91.19;99756.56;10495503;28;20070;-78
2021/12/02 03:35:30;;;;;;;13.02;7.15;;;;;;;1.26;91.53;99772.03;10496429;28;20543;-78
2021/12/02 03:40:31;;;;;;;15.60;8.80;;;;;;;1.40;91.93;99774.66;10537330;28;20040;-78
2021/12/02 03:45:32;;;;;;;19.88;7.95;;;;;;;1.53;92.04;99771.19;10498762;28;20062;-78
2021/12/02 03:50:34;;;;;;;15.23;8.23;;;;;;;1.63;92.03;99777.84;10495435;28;20124;-78
2021/12/02 03:55:38;;;;;;;9.20;5.68;;;;;;;1.68;91.80;99769.59;10519475;28;20047;-79
2021/12/02 04:00:41;;;;;;;15.27;5.82;;;;;;;1.60;91.71;99763.06;10519492;28;20097;-78
2021/12/02 04:05:41;;;;;;;12.55;5.63;;;;;;;1.66;91.60;99757.41;10537840;28;20024;-78
2021/12/02 04:10:45;;;;;;;14.88;5.75;;;;;;;1.52;91.41;99762.56;10518880;28;20086;-78
2021/12/02 04:15:50;;;;;;;11.88;5.68;;;;;;;1.44;91.35;99767.19;10520092;28;20085;-79
2021/12/02 04:20:51;;;;;;;11.80;4.15;;;;;;;1.54;91.54;99772.97;10536601;28;20024;-79
2021/12/02 04:25:51;;;;;;;9.20;3.83;;;;;;;1.66;91.43;99778.94;10535144;28;20087;-78
2021/12/02 04:30:52;;;;;;;10.95;4.40;;;;;;;1.71;91.18;99784.41;10527496;28;20031;-77
2021/12/02 04:35:53;;;;;;;12.55;4.28;;;;;;;1.79;91.04;99805.53;10524497;28;20048;-78
2021/12/02 04:40:54;;;;;;;10.25;2.40;;;;;;;1.73;90.53;99791.44;10502535;28;20393;-79
2021/12/02 04:45:54;;;;;;;5.90;3.60;;;;;;;1.53;89.51;99791.81;10475272;28;20491;-79
2021/12/02 04:50:55;;;;;;;3.63;1.65;;;;;;;1.38;89.54;99790.00;10545818;28;20020;-80
2021/12/02 04:55:55;;;;;;;13.82;3.38;;;;;;;1.39;89.62;99788.31;10525651;28;20111;-78
2021/12/02 05:00:56;;;;;;;5.88;2.30;;;;;;;1.21;89.61;99770.84;10526398;28;20035;-78
2021/12/02 05:05:57;;;;;;;11.70;2.67;;;;;;;1.04;90.01;99785.13;10508848;28;20467;-80
2021/12/02 05:10:57;;;;;;;8.57;2.80;;;;;;;0.86;90.27;99785.66;10526493;28;20115;-80
2021/12/02 05:15:58;;;;;;;9.35;3.22;;;;;;;0.85;90.85;99794.19;10543269;28;20442;-80
2021/12/02 05:20:59;;;;;;;10.40;4.47;;;;;;;0.93;91.39;99796.41;10524553;28;20024;-80
2021/12/02 05:26:00;;;;;;;12.27;4.97;;;;;;;0.99;91.69;99792.56;10509654;28;20479;-81
2021/12/02 05:31:00;;;;;;;9.05;2.88;;;;;;;0.92;91.29;99792.03;10524727;28;20035;-82
2021/12/02 05:36:01;;;;;;;6.28;2.38;;;;;;;0.97;91.45;99798.41;10541167;28;20130;-82
2021/12/02 05:41:03;;;;;;;13.35;4.38;;;;;;;1.13;91.81;99795.19;10525827;28;20032;-81
2021/12/02 05:46:05;;;;;;;9.57;5.18;;;;;;;1.29;91.88;99810.00;10540953;28;20084;-81
2021/12/02 05:51:06;;;;;;;10.97;3.20;;;;;;;1.38;91.40;99814.91;10523127;28;20048;-80
2021/12/02 05:56:07;;;;;;;7.75;4.03;;;;;;;1.34;91.20;99816.38;10502143;28;20112;-79
2021/12/02 06:01:07;;;;;;;11.80;5.93;;;;;;;1.20;90.66;99806.81;10523769;28;20107;-78
2021/12/02 06:06:10;;;;;;;7.05;3.55;;;;;;;0.99;90.34;99815.75;10540485;28;20436;-78
2021/12/02 06:11:11;;;;;;;9.77;3.45;;;;;;;0.89;90.44;99828.81;10523241;28;20052;-79
2021/12/02 06:16:12;;;;;;;11.40;3.30;;;;;;;0.92;91.06;99828.09;10541236;28;20067;-78
2021/12/02 06:21:12;;;;;;;14.20;3.40;;;;;;;1.02;91.45;99841.75;10522210;28;20020;-78
2021/12/02 06:26:13;;;;;;;8.45;4.30;;;;;;;1.10;91.40;99850.00;10539351;28;20396;-77
2021/12/02 06:31:13;;;;;;;10.50;4.45;;;;;;;1.12;91.15;99847.53;10520468;28;20081;-84
2021/12/02 06:36:14;;;;;;;7.25;4.28;;;;;;;0.98;90.30;99856.88;10539986;28;20591;-83
2021/12/02 06:41:15;;;;;;;8.00;4.75;;;;;;;0.79;90.22;99853.00;10539574;28;20063;-85
2021/12/02 06:46:16;;;;;;;8.83;5.67;;;;;;;0.67;90.46;99872.75;10504346;28;20488;-85
2021/12/02 06:51:18;;;;;;;11.32;5.93;;;;;;;0.69;90.92;99894.34;10521460;28;20052;-84
2021/12/02 06:56:19;;;;;;;7.93;5.50;;;;;;;0.72;91.17;99884.28;10520490;28;20499;-85
2021/12/02 07:01:19;;;;;;;9.40;5.97;;;;;;;0.74;91.29;99872.41;10503421;28;20067;-85
2021/12/02 07:06:20;;;;;;;12.25;7.40;;;;;;;0.67;91.13;99877.91;10539092;28;20074;-85
2021/12/02 07:11:20;;;;;;;8.45;5.80;;;;;;;0.48;91.49;99893.72;10522736;28;20042;-87
2021/12/02 07:16:21;;;;;;;11.98;5.53;;;;;;;0.20;90.92;99895.16;10537938;28;20436;-86
2021/12/02 07:21:22;;;;;;;9.55;5.80;;;;;;;0.04;91.16;99892.25;10504365;28;20102;-86
2021/12/02 07:26:22;;;;;;;8.75;5.55;;;;;;;-0.09;90.96;99898.19;10519727;28;20118;-86
2021/12/02 07:31:23;;;;;;;8.77;6.15;;;;;;;-0.19;91.49;99919.72;10537554;28;20058;-82
2021/12/02 07:36:24;;;;;;;10.25;5.38;;;;;;;-0.19;92.23;99924.88;10502359;28;20087;-83
2021/12/02 07:41:24;;;;;;;10.37;4.87;;;;;;;-0.21;92.15;99941.88;10472350;28;20373;-83
2021/12/02 07:46:25;;;;;;;9.50;5.90;;;;;;;-0.08;92.02;99942.00;10537678;28;20071;-82
2021/12/02 07:51:29;;;;;;;12.43;7.00;;;;;;;0.01;93.05;99952.09;10519420;28;20555;-80
2021/12/02 07:56:29;;;;;;;15.00;7.05;;;;;;;0.21;92.78;99955.28;10536678;28;20028;-83
2021/12/02 08:01:30;;;;;;;13.48;7.50;;;;;;;0.40;92.88;99960.09;10518807;28;20054;-82
2021/12/02 08:06:30;;;;;;;12.95;7.63;;;;;;;0.62;93.38;99947.13;10518870;28;20067;-80
2021/12/02 08:11:31;;;;;;;13.75;7.22;;;;;;;0.62;92.78;99953.94;10517319;28;20023;-81
2021/12/02 08:16:32;;;;;;;7.28;3.70;;;;;;;0.55;91.54;99963.78;10501384;28;20078;-84
2021/12/02 08:21:32;;;;;;;5.53;2.63;;;;;;;0.51;91.49;99966.91;10517855;28;20122;-83
2021/12/02 08:26:33;;;;;;;5.50;3.40;;;;;;;0.51;91.18;99951.47;10501141;28;20067;-83
2021/12/02 08:31:34;;;;;;;11.93;3.08;;;;;;;0.54;90.90;99982.59;10536836;28;20753;-83
2021/12/02 08:36:44;;;;;;;6.03;3.67;;;;;;;0.47;90.82;99988.06;10520120;28;20150;-83
2021/12/02 08:41:49;;;;;;;6.80;4.40;;;;;;;0.44;90.67;99993.00;10537488;28;20071;-83
2021/12/02 08:46:50;;;;;;;7.43;3.83;;;;;;;0.45;90.96;99997.38;10518385;28;20043;-83
2021/12/02 08:51:51;;;;;;;13.07;5.90;;;;;;;0.46;90.60;100011.16;10518617;28;20028;-83
2021/12/02 08:56:54;;;;;;;8.10;4.13;;;;;;;0.38;90.58;100006.34;10502673;28;20395;-83
2021/12/02 09:01:55;;;;;;;8.05;5.50;;;;;;;0.48;90.77;100013.03;10537096;28;20536;-83
2021/12/02 09:06:56;;;;;;;9.20;5.10;;;;;;;0.55;90.49;100023.00;10535989;28;20028;-82
2021/12/02 09:11:57;;;;;;;8.13;6.90;;;;;;;1.08;90.82;100013.06;10521098;28;20068;-83
2021/12/02 09:16:57;;;;;;;8.70;4.88;;;;;;;1.54;90.34;100041.19;10525755;28;20036;-83
2021/12/02 09:21:58;;;;;;;9.13;3.90;;;;;;;1.42;88.76;100034.38;10525347;28;20054;-84
2021/12/02 09:26:58;;;;;;;5.68;3.33;;;;;;;1.69;88.80;100050.00;10543083;28;20058;-84
2021/12/02 09:31:59;;;;;;;4.85;2.45;;;;;;;2.11;87.21;100059.72;10518540;28;20033;-83
2021/12/02 09:36:59;;;;;;;5.13;2.95;;;;;;;2.82;84.73;100061.00;10448467;28;20127;-82
2021/12/02 09:42:00;;;;;;;4.18;2.05;;;;;;;5.10;75.61;100056.63;10466430;28;20028;-84
2021/12/02 09:47:01;;;;;;;5.95;1.60;;;;;;;6.33;70.45;100051.13;10506755;28;20476;-84
2021/12/02 09:52:06;;;;;;;4.40;1.30;;;;;;;6.23;70.73;100054.06;10541339;28;20055;-83
2021/12/02 09:57:11;;;;;;;2.92;1.92;;;;;;;4.79;73.64;100067.84;10483066;28;20492;-83
2021/12/02 10:02:15;;;;;;;5.35;1.60;;;;;;;3.62;77.93;100080.72;10482367;28;20028;-83
2021/12/02 10:07:41;;;;;;;7.45;2.80;;;;;;;2.85;80.58;100076.69;10480193;28;20036;-83
2021/12/02 10:18:26;;;;;;;3.90;2.97;;;;;;;2.95;80.26;100081.69;10540293;28;20020;-84
2021/12/02 10:23:33;;;;;;;4.38;2.97;;;;;;;3.17;81.45;100080.50;10505690;28;20099;-83
2021/12/02 10:28:41;;;;;;;4.65;3.05;;;;;;;5.50;71.82;100073.56;10523370;28;20034;-82
2021/12/02 10:33:45;;;;;;;4.32;2.03;;;;;;;4.37;75.47;100086.16;10490146;28;20043;-82
2021/12/02 10:38:45;;;;;;;34.47;21.05;;;;;;;3.53;77.89;100084.50;10504052;28;20051;-80
2021/12/02 10:44:08;;;;;;;9.50;4.68;;;;;;;3.33;78.92;100077.19;10506715;28;20035;-79
2021/12/02 10:49:15;;;;;;;5.47;2.47;;;;;;;3.06;79.76;100082.38;10540533;28;20234;-81
2021/12/02 10:54:26;;;;;;;6.22;3.20;;;;;;;2.66;81.13;100072.00;10524493;28;20024;-80
2021/12/02 10:59:28;;;;;;;6.25;3.50;;;;;;;2.50;80.96;100076.13;10521948;28;20043;-80
2021/12/02 11:04:39;;;;;;;5.78;2.08;;;;;;;3.03;80.62;100077.00;10522328;28;20031;-80
2021/12/02 11:09:40;;;;;;;5.83;3.93;;;;;;;3.27;79.09;100087.13;10505973;28;20028;-79
2021/12/02 11:15:07;;;;;;;7.82;3.80;;;;;;;3.28;79.31;100096.69;10504211;28;20020;-81
2021/12/02 11:20:10;;;;;;;16.48;11.07;;;;;;;2.96;79.40;100100.66;10532053;28;20031;-81
2021/12/02 11:25:11;;;;;;;6.07;3.35;;;;;;;2.61;80.09;100103.56;10487613;28;20032;-81
2021/12/02 11:30:16;;;;;;;6.10;3.30;;;;;;;2.63;79.61;100104.56;10486270;28;20020;-82
2021/12/02 11:35:33;;;;;;;4.45;3.65;;;;;;;2.62;80.40;100112.25;10519771;28;20032;-83
2021/12/02 11:40:37;;;;;;;4.50;2.67;;;;;;;2.95;79.92;100112.69;10485484;28;20421;-82
2021/12/02 11:45:49;;;;;;;5.07;2.42;;;;;;;3.98;77.17;100112.28;10535103;28;20089;-83
2021/12/02 11:50:55;;;;;;;8.88;2.80;;;;;;;4.43;75.48;100117.63;10520347;28;20024;-84
2021/12/02 11:56:04;;;;;;;7.35;3.03;;;;;;;4.14;75.19;100116.75;10485903;28;20028;-83
2021/12/02 12:01:13;;;;;;;4.53;2.45;;;;;;;3.40;76.98;100114.69;10502546;28;20030;-83
2021/12/02 12:06:15;;;;;;;7.80;3.53;;;;;;;3.40;79.05;100118.16;10520598;28;20065;-83
2021/12/02 12:11:22;;;;;;;10.35;3.67;;;;;;;4.31;75.69;100122.94;10518342;28;20074;-82
2021/12/02 12:16:25;;;;;;;4.93;3.20;;;;;;;4.88;74.05;100114.16;10536770;28;20077;-82
2021/12/02 12:21:36;;;;;;;5.57;2.63;;;;;;;5.82;71.05;100132.44;10483156;28;20493;-82
2021/12/02 12:26:41;;;;;;;6.43;3.33;;;;;;;4.88;73.00;100140.09;10518555;28;20740;-82
2021/12/02 12:31:49;;;;;;;6.88;3.25;;;;;;;4.59;73.89;100153.09;10535949;28;20290;-83
2021/12/02 12:36:51;;;;;;;8.23;2.92;;;;;;;4.18;74.56;100148.88;10531900;28;20049;-82
2021/12/02 12:42:20;;;;;;;6.87;1.90;;;;;;;3.57;76.78;100149.41;10477627;28;20028;-83
2021/12/02 12:47:39;;;;;;;6.00;3.92;;;;;;;3.31;77.84;100154.69;10481187;28;20121;-83
2021/12/02 12:52:40;;;;;;;7.45;3.63;;;;;;;3.02;78.76;100155.34;10518173;28;20073;-82
2021/12/02 12:58:15;;;;;;;7.57;3.80;;;;;;;2.80;79.34;100153.91;10525074;28;20104;-82
2021/12/02 13:03:22;;;;;;;4.53;2.65;;;;;;;2.86;79.92;100172.41;10544170;28;20035;-83
2021/12/02 13:08:25;;;;;;;21.33;11.35;;;;;;;2.79;79.44;100172.78;10519415;28;20085;-82
2021/12/02 13:13:34;;;;;;;10.52;2.67;;;;;;;2.72;80.39;100186.09;10482794;28;20103;-83
2021/12/02 13:18:36;;;;;;;8.38;4.03;;;;;;;2.74;80.17;100187.09;10462553;28;20035;-83
2021/12/02 13:23:37;;;;;;;5.63;3.33;;;;;;;2.80;80.92;100200.44;10483542;28;20024;-83
2021/12/02 13:28:42;;;;;;;29.92;15.35;;;;;;;3.43;79.92;100218.38;10483031;28;20082;-83
2021/12/02 13:33:49;;;;;;;5.50;2.80;;;;;;;3.73;78.67;100219.47;10465902;28;20076;-82
2021/12/02 13:39:21;;;;;;;5.28;2.40;;;;;;;3.35;77.95;100231.69;10468617;28;20132;-83
2021/12/02 13:44:25;;;;;;;5.20;2.25;;;;;;;3.22;77.73;100255.84;10479984;28;20053;-82
2021/12/02 13:49:30;;;;;;;3.72;0.90;;;;;;;2.98;76.68;100262.84;10506710;28;20399;-82
2021/12/02 13:54:31;;;;;;;1.25;0.60;;;;;;;2.49;77.56;100268.06;10523345;28;20548;-83
2021/12/02 13:59:39;;;;;;;2.38;1.45;;;;;;;2.24;79.28;100284.41;10541987;28;20077;-82
2021/12/02 14:04:44;;;;;;;2.00;1.17;;;;;;;2.77;77.49;100285.50;10540972;28;20466;-82
2021/12/02 14:09:47;;;;;;;30.35;24.10;;;;;;;2.51;77.99;100275.94;10489595;28;20404;-82
2021/12/02 14:14:58;;;;;;;2.00;1.30;;;;;;;2.11;79.08;100282.66;10522432;28;20032;-81
2021/12/02 14:20:06;;;;;;;3.35;1.40;;;;;;;1.68;80.75;100289.84;10523125;28;20016;-82
2021/12/02 14:25:08;;;;;;;10.43;9.38;;;;;;;1.29;82.68;100298.19;10506270;28;20035;-82
2021/12/02 14:30:14;;;;;;;12.77;7.28;;;;;;;1.05;83.84;100297.22;10522201;28;20024;-82
2021/12/02 14:35:17;;;;;;;3.80;2.03;;;;;;;0.81;84.60;100303.97;10540357;28;20483;-82
2021/12/02 14:40:48;;;;;;;6.18;2.45;;;;;;;0.68;86.03;100317.56;10521709;28;20043;-82
2021/12/02 14:45:51;;;;;;;4.37;2.50;;;;;;;0.58;85.73;100333.97;10522597;28;20118;-82
2021/12/02 14:51:00;;;;;;;3.95;2.40;;;;;;;0.51;86.66;100352.28;10521840;28;20042;-82
2021/12/02 14:56:05;;;;;;;4.07;2.80;;;;;;;0.50;87.40;100361.69;10539492;28;20391;-82
2021/12/02 15:01:13;;;;;;;4.18;2.78;;;;;;;0.36;87.00;100363.16;10521119;28;20104;-82
2021/12/02 15:06:13;;;;;;;8.50;3.78;;;;;;;0.23;87.88;100375.81;10520197;28;20055;-82
2021/12/02 15:11:17;;;;;;;6.32;3.20;;;;;;;0.09;88.08;100377.25;10538489;28;20082;-82
2021/12/02 15:16:17;;;;;;;10.50;4.10;;;;;;;-0.09;88.35;100392.09;10520830;28;20110;-83
2021/12/02 15:21:18;;;;;;;8.10;3.40;;;;;;;-0.27;88.26;100399.19;10519052;28;20110;-83
2021/12/02 15:26:22;;;;;;;6.93;4.72;;;;;;;-0.35;88.80;100411.41;10504214;28;20440;-83
2021/12/02 15:31:25;;;;;;;9.35;3.70;;;;;;;-0.39;89.13;100423.09;10505027;28;20028;-83
2021/12/02 15:36:28;;;;;;;5.65;4.25;;;;;;;-0.50;89.97;100426.44;10538032;28;20036;-83
2021/12/02 15:41:29;;;;;;;7.65;4.90;;;;;;;-0.69;89.64;100447.13;10520743;28;20119;-83
2021/12/02 15:46:39;;;;;;;7.45;4.35;;;;;;;-0.81;90.38;100439.25;10510322;28;20043;-83
2021/12/02 15:51:41;;;;;;;10.80;7.38;;;;;;;-0.98;89.67;100448.06;10529076;28;20064;-83
2021/12/02 15:56:41;;;;;;;15.38;5.80;;;;;;;-1.17;89.70;100460.97;10519192;28;20032;-85
2021/12/02 16:02:26;;;;;;;9.10;4.93;;;;;;;-1.34;90.06;100480.91;10516976;28;20024;-83
2021/12/02 16:07:11;;;;;;;9.35;6.65;;;;;;;-1.49;90.92;100494.19;10493008;28;20048;-79
2021/12/02 16:12:27;;;;;;;11.52;6.32;;;;;;;-1.49;90.65;100504.47;10491057;28;20029;-81
2021/12/02 16:17:28;;;;;;;10.85;6.63;;;;;;;-1.45;91.57;100523.63;10533171;28;20024;-82
2021/12/02 16:22:28;;;;;;;16.75;6.47;;;;;;;-1.52;91.35;100521.25;10523656;28;20032;-78
2021/12/02 16:27:30;;;;;;;8.50;5.93;;;;;;;-1.55;91.08;100542.41;10542450;28;20105;-78
2021/12/02 16:32:33;;;;;;;9.40;6.13;;;;;;;-1.64;91.01;100546.72;10543059;28;20042;-78
2021/12/02 16:37:34;;;;;;;10.95;6.60;;;;;;;-1.61;91.22;100553.81;10523745;28;20131;-78
2021/12/02 16:42:40;;;;;;;10.35;6.82;;;;;;;-1.67;91.46;100549.00;10491026;28;20041;-78
2021/12/02 16:47:41;;;;;;;10.15;6.53;;;;;;;-1.82;92.14;100561.34;10510503;28;20035;-82
2021/12/02 16:52:42;;;;;;;14.13;7.30;;;;;;;-1.83;91.64;100569.78;10541920;28;20027;-82
2021/12/02 16:57:42;;;;;;;9.82;6.43;;;;;;;-1.84;92.08;100578.25;10525041;28;20545;-83
2021/12/02 17:02:43;;;;;;;9.23;7.00;;;;;;;-2.02;92.32;100595.38;10544564;28;20460;-83
2021/12/02 17:07:44;;;;;;;14.45;7.60;;;;;;;-1.94;92.17;100591.88;10498672;28;20828;-83
2021/12/02 17:12:44;;;;;;;13.23;8.57;;;;;;;-1.98;92.03;100612.88;10500489;28;20114;-76
2021/12/02 17:17:46;;;;;;;13.63;9.15;;;;;;;-1.87;92.24;100609.63;10536881;28;20135;-83
2021/12/02 17:22:46;;;;;;;13.77;9.97;;;;;;;-1.86;92.34;100621.72;10480474;28;20110;-86
2021/12/02 17:27:47;;;;;;;11.43;8.38;;;;;;;-1.90;92.94;100627.31;10519944;28;20042;-78
2021/12/02 17:32:47;;;;;;;14.50;11.27;;;;;;;-1.95;92.81;100632.03;10514178;28;20585;-79
2021/12/02 17:37:48;;;;;;;13.63;9.60;;;;;;;-2.15;92.66;100636.94;10520697;28;20119;-80
2021/12/02 17:42:49;;;;;;;18.27;11.00;;;;;;;-2.22;92.69;100649.19;10520509;28;20047;-78
2021/12/02 17:47:50;;;;;;;13.87;10.57;;;;;;;-2.39;92.85;100652.69;10521639;28;20051;-82
2021/12/02 17:52:51;;;;;;;18.83;13.50;;;;;;;-2.46;92.33;100667.34;10488987;28;20055;-84
2021/12/02 17:57:51;;;;;;;16.90;13.90;;;;;;;-2.37;92.69;100676.81;10505283;28;20776;-82
2021/12/02 18:02:52;;;;;;;18.02;15.57;;;;;;;-2.35;92.34;100687.22;10505253;28;20850;-80
2021/12/02 18:07:52;;;;;;;19.55;14.82;;;;;;;-2.45;92.62;100690.56;10539441;28;20056;-80
2021/12/02 18:12:53;;;;;;;19.50;15.68;;;;;;;-2.54;92.97;100693.16;10485675;28;20711;-78
2021/12/02 18:17:53;;;;;;;75.35;24.80;;;;;;;-2.70;93.05;100707.78;10521491;28;20123;-78
2021/12/02 18:22:54;;;;;;;25.58;18.42;;;;;;;-2.79;92.52;100707.75;10538206;28;20208;-85
2021/12/02 18:27:55;;;;;;;22.35;17.40;;;;;;;-2.83;92.82;100721.03;10521377;28;20403;-84
2021/12/02 18:32:56;;;;;;;20.35;18.15;;;;;;;-2.91;93.31;100724.50;10539069;28;20039;-81
2021/12/02 18:37:57;;;;;;;69.97;42.10;;;;;;;-2.98;92.46;100723.88;10521349;28;20052;-80
2021/12/02 18:42:58;;;;;;;32.55;24.55;;;;;;;-2.97;92.87;100745.28;10521895;28;20290;-87
2021/12/02 18:47:58;;;;;;;33.92;23.80;;;;;;;-2.93;92.87;100746.47;10509920;28;20785;-82
2021/12/02 18:52:59;;;;;;;38.17;24.83;;;;;;;-2.96;93.19;100749.66;10494251;28;20062;-84
2021/12/02 18:58:00;;;;;;;29.50;23.63;;;;;;;-3.05;93.02;100752.19;10502844;28;20020;-83
2021/12/02 19:03:01;;;;;;;42.75;29.35;;;;;;;-2.87;93.46;100753.13;10462389;28;20028;-84
2021/12/02 19:29:05;;;;;;;43.67;33.70;;;;;;;-2.97;93.18;100799.97;10537980;28;20486;-85
2021/12/02 19:34:07;;;;;;;43.90;31.58;;;;;;;-3.02;93.71;100808.84;10519615;28;20396;-85
2021/12/02 19:39:08;;;;;;;45.63;36.05;;;;;;;-3.01;93.66;100808.09;10537896;28;20075;-82
2021/12/02 19:44:08;;;;;;;54.13;38.33;;;;;;;-3.01;93.73;100815.78;10538480;28;20036;-83
2021/12/02 19:49:09;;;;;;;47.25;37.50;;;;;;;-2.72;93.34;100822.03;10518803;28;20063;-83
2021/12/02 19:54:09;;;;;;;47.10;37.97;;;;;;;-2.58;93.20;100829.44;10517875;28;20051;-85
2021/12/02 19:59:10;;;;;;;57.38;42.03;;;;;;;-2.45;93.81;100825.50;10519727;28;20029;-85
2021/12/02 20:04:10;;;;;;;51.58;39.00;;;;;;;-2.40;93.57;100832.00;10536256;28;20032;-83
2021/12/02 20:09:11;;;;;;;64.63;47.60;;;;;;;-2.23;93.77;100839.69;10537617;28;20115;-84
2021/12/02 20:14:12;;;;;;;60.35;44.30;;;;;;;-2.22;93.30;100846.63;10537003;28;20032;-85
2021/12/02 20:19:15;;;;;;;72.28;51.60;;;;;;;-2.11;93.62;100851.91;10537617;28;20028;-83
2021/12/02 20:24:15;;;;;;;63.08;49.70;;;;;;;-2.02;93.74;100857.94;10517699;28;20028;-85
2021/12/02 20:29:16;;;;;;;68.38;48.50;;;;;;;-2.00;93.63;100860.63;10518179;28;20470;-84
2021/12/02 20:34:16;;;;;;;61.53;46.20;;;;;;;-2.03;93.59;100868.94;10509076;28;20480;-86
2021/12/02 20:39:17;;;;;;;64.03;48.65;;;;;;;-2.11;93.59;100864.72;10517735;28;20125;-86
2021/12/02 20:44:20;;;;;;;69.72;48.28;;;;;;;-2.35;93.64;100866.69;10536340;28;20028;-85
2021/12/02 20:49:41;;;;;;;64.70;48.05;;;;;;;-2.54;94.06;100869.97;10492420;28;20135;-84
2021/12/02 20:54:42;;;;;;;73.63;49.05;;;;;;;-2.66;94.03;100879.00;10491331;28;20032;-85
2021/12/02 20:59:43;;;;;;;57.35;44.45;;;;;;;-2.70;93.43;100877.78;10502181;28;20033;-83
2021/12/02 21:04:44;;;;;;;72.80;48.63;;;;;;;-2.73;94.02;100877.47;10513752;28;20082;-85
2021/12/02 21:09:45;;;;;;;64.70;46.63;;;;;;;-2.83;93.91;100896.16;10476817;28;20032;-83
2021/12/02 21:14:51;;;;;;;63.33;45.97;;;;;;;-2.74;93.48;100906.41;10483427;28;20035;-87
2021/12/02 21:19:51;;;;;;;65.38;47.10;;;;;;;-2.83;93.96;100910.59;10508568;28;20035;-87
2021/12/02 21:24:52;;;;;;;65.80;45.67;;;;;;;-2.87;94.05;100918.72;10507976;28;20451;-87
2021/12/02 21:29:52;;;;;;;67.70;47.92;;;;;;;-2.82;93.41;100914.97;10522382;28;20034;-87
2021/12/02 21:34:53;;;;;;;67.82;47.15;;;;;;;-2.82;93.65;100921.00;10524435;28;20055;-88
2021/12/02 21:39:55;;;;;;;71.82;46.88;;;;;;;-2.91;93.94;100927.75;10500872;28;20052;-84
2021/12/02 21:44:56;;;;;;;74.88;47.00;;;;;;;-2.94;93.58;100924.88;10508171;28;20410;-84
2021/12/02 21:49:56;;;;;;;64.57;47.53;;;;;;;-3.00;93.53;100919.13;10507765;28;20487;-85
2021/12/02 21:54:57;;;;;;;61.20;45.08;;;;;;;-3.00;93.83;100914.00;10524289;28;20027;-84
2021/12/02 22:00:04;;;;;;;64.55;47.03;;;;;;;-3.01;93.82;100912.19;10523726;28;20028;-84
2021/12/02 22:05:05;;;;;;;68.97;46.55;;;;;;;-3.21;93.38;100922.94;10508365;28;20067;-84
2021/12/02 22:10:12;;;;;;;67.95;49.00;;;;;;;-3.20;93.79;100919.63;10506865;28;20056;-84
2021/12/02 22:15:13;;;;;;;69.00;47.53;;;;;;;-3.36;93.72;100932.50;10541477;28;20056;-84
2021/12/02 22:20:14;;;;;;;63.83;44.13;;;;;;;-3.55;93.95;100933.16;10505443;28;20472;-84
2021/12/02 22:25:15;;;;;;;70.40;48.78;;;;;;;-3.51;93.26;100927.59;10541774;28;20067;-84
2021/12/02 22:30:17;;;;;;;65.53;51.38;;;;;;;-3.57;93.34;100942.31;10522509;28;20479;-84
2021/12/02 22:35:18;;;;;;;67.07;48.22;;;;;;;-3.73;93.38;100942.34;10523158;28;20036;-84
2021/12/02 22:40:21;;;;;;;68.68;52.53;;;;;;;-3.80;93.48;100953.59;10498168;28;20123;-84
2021/12/02 22:45:22;;;;;;;75.68;54.30;;;;;;;-3.71;93.62;100948.53;10498614;28;20075;-83
2021/12/02 22:50:23;;;;;;;90.30;60.42;;;;;;;-3.63;93.40;100959.56;10497909;28;20029;-83
2021/12/02 22:55:23;;;;;;;77.13;54.60;;;;;;;-3.70;93.34;100942.66;10483877;28;20020;-83
2021/12/02 23:00:36;;;;;;;81.55;55.53;;;;;;;-3.83;93.34;100958.38;10466536;28;20496;-83
2021/12/02 23:05:37;;;;;;;86.65;52.10;;;;;;;-3.91;93.57;100972.88;10479531;28;20031;-83
2021/12/02 23:10:38;;;;;;;81.78;59.03;;;;;;;-4.02;93.31;100976.88;10496908;28;20025;-83
2021/12/02 23:15:38;;;;;;;85.47;58.92;;;;;;;-4.19;93.15;100975.03;10496610;28;20083;-83
2021/12/02 23:20:39;;;;;;;75.20;55.40;;;;;;;-4.00;93.31;100966.78;10495601;28;20034;-83
2021/12/02 23:25:45;;;;;;;83.27;55.13;;;;;;;-4.00;93.40;100961.69;10495466;28;20366;-83
2021/12/02 23:30:45;;;;;;;78.50;55.33;;;;;;;-3.98;93.85;100970.41;10478389;28;20043;-84
2021/12/02 23:35:46;;;;;;;80.77;58.03;;;;;;;-3.90;93.93;100959.34;10497473;28;20035;-83
2021/12/02 23:40:48;;;;;;;85.50;60.03;;;;;;;-3.94;93.36;100964.00;10461354;28;20076;-83
2021/12/02 23:45:49;;;;;;;86.57;62.53;;;;;;;-3.98;93.65;100970.41;10478202;28;20036;-83
2021/12/02 23:50:50;;;;;;;87.22;62.33;;;;;;;-3.91;94.05;100974.56;10495368;28;20127;-84
2021/12/02 23:55:51;;;;;;;91.68;59.03;;;;;;;-3.74;93.82;100963.53;10461308;28;20123;-84
